Scottish Airport Reports

Civil airfields updated at H+20 and H+50
RAF airfields updated at H+50 only

EGPD - Aberdeen
Distance from station: NNE 19mi, 31km
Updated: 23/04/2018 11:50
Nearby showers, Mostly cloudy
Nearby showers, Mostly cloudy
 Wind from NW
Wind: NW 10 mph , 17 km/h
Temperature: 12°C
Dew Point: 6°C
Humidity: 67%
Barometer: 1004 hPa
Summary: Nearby Showers
Clouds: Mostly cloudy
Visibility: 6 miles , 10 km
Cloud details: Partly cloudy 3200 ft
Mostly cloudy 3900 ft
2018/04/23 10:50 EGPD 231050Z 32009KT 9999 VCSH SCT032 BKN039 12/06 Q1004
EGPN - Dundee
Distance from station: SW 41mi, 66km
Updated: 23/04/2018 11:50
Few Clouds
Few Clouds
 Wind from W
Wind: W 22 mph , 35 km/h
Temperature: 12°C
Dew Point: 7°C
Humidity: 72%
Barometer: 1006 hPa
Clouds: Few Clouds
Visibility: 6 miles , 10 km
Cloud details: Few Clouds 3000 ft
2018/04/23 10:50 EGPN 231050Z 26019KT 9999 FEW030 12/07 Q1006
 
EGQS - RAF Lossiemouth
Distance from station: NNW 63mi, 102km
Updated: 23/04/2018 11:50
Partly cloudy
Partly cloudy
 Wind from W
Wind: W 16 mph , 26 km/h
Temperature: 12°C
Dew Point: 6°C
Humidity: 67%
Barometer: 1003 hPa
Clouds: Partly cloudy
Visibility: 6 miles , 10 km
Cloud details: Few Clouds 2000 ft
Partly cloudy 5000 ft
2018/04/23 10:50 EGQS 231050Z 26014KT 9999 FEW020 SCT050 12/06 Q1003 BLU NOSIG
EGPE - Inverness
Distance from station: WNW 73mi, 117km
Updated: 23/04/2018 11:50
Nearby showers, Mostly cloudy
Nearby showers, Mostly cloudy
 Wind from WSW
Wind: WSW 24 mph , 39 km/h
Temperature: 10°C
Wind Chill: 6°C
Dew Point: 7°C
Humidity: 82%
Barometer: 1004 hPa
Summary: Nearby Showers
Clouds: Mostly cloudy
Visibility: 6 miles , 10 km
Cloud details: Few Clouds 1500 ft
Partly cloudy 3200 ft
Mostly cloudy 4300 ft
2018/04/23 10:50 EGPE 231050Z 25021KT 9999 VCSH FEW015 SCT032 BKN043 10/07 Q1004
 
EGPH - Edinburgh
Distance from station: SSW 77mi, 125km
Updated: 23/04/2018 11:50
Partly cloudy
Partly cloudy
 Wind from WSW
Wind: WSW 18 mph , 30 km/h
Temperature: 11°C
Dew Point: 6°C
Humidity: 72%
Barometer: 1007 hPa
Clouds: Partly cloudy
Visibility: 6 miles , 10 km
Cloud details: Partly cloudy 2200 ft
2018/04/23 10:50 EGPH 231050Z 24016KT 9999 SCT022 11/06 Q1007
EGPC - Wick
Distance from station: NNW 107mi, 172km
Updated: 23/04/2018 11:50
Partly cloudy
Partly cloudy
 Wind from W
Wind: W 24 mph , 39 km/h
Temperature: 11°C
Dew Point: 5°C
Humidity: 67%
Barometer: 1001 hPa
Clouds: Partly cloudy
Visibility: 6 miles , 10 km
Cloud details: Partly cloudy 3200 ft
2018/04/23 10:50 EGPC 231050Z 28021KT 9999 SCT032 11/05 Q1001
 
EGPF - Glasgow
Distance from station: SW 107mi, 172km
Updated: 23/04/2018 11:50
Mostly cloudy
Mostly cloudy
 Wind from WSW
Wind: WSW 20 mph , 31 km/h
Temperature: 11°C
Dew Point: 6°C
Humidity: 72%
Barometer: 1008 hPa
Clouds: Mostly cloudy
Visibility: 6 miles , 10 km
Cloud details: Mostly cloudy 3700 ft
2018/04/23 10:50 EGPF 231050Z AUTO 25017KT 9999 BKN037 11/06 Q1008
EGPK - Prestwick
Distance from station: SW 130mi, 209km
Updated: 23/04/2018 11:50
Partly cloudy
Partly cloudy
 Wind from SW
Wind: SW 16 mph , 26 km/h
Temperature: 10°C
Wind Chill: 7°C
Dew Point: 6°C
Humidity: 76%
Barometer: 1009 hPa
Clouds: Partly cloudy
Visibility: 6 miles , 10 km
Cloud details: Partly cloudy 3000 ft
2018/04/23 10:50 EGPK 231050Z 23014KT 9999 SCT030 10/06 Q1009
 
EGPA - Kirkwall, Orkney
Distance from station: N 140mi, 225km
Updated: 23/04/2018 11:50
Nearby showers, Partly cloudy
Nearby showers, Partly cloudy
 Wind from W
Wind: W 21 mph , 33 km/h
Temperature: 11°C
Dew Point: 6°C
Humidity: 72%
Barometer: 1000 hPa
Summary: Nearby Showers
Clouds: Partly cloudy
Visibility: 6 miles , 10 km
Cloud details: Partly cloudy 1800 ft
Partly cloudy 3500 ft
2018/04/23 10:50 EGPA 231050Z 26018KT 9999 VCSH SCT018 SCT035 11/06 Q1000
EGPO - Stornoway, Outer Hebrides
Distance from station: WNW 169mi, 273km
Updated: 23/04/2018 11:50
Partly cloudy
Partly cloudy
 Wind from WSW
Wind: WSW 20 mph , 31 km/h
Temperature: 10°C
Wind Chill: 7°C
Dew Point: 6°C
Humidity: 76%
Barometer: 1002 hPa
Clouds: Partly cloudy
Visibility: 6 miles , 10 km
Cloud details: Few Clouds 1200 ft
Partly cloudy 2200 ft
2018/04/23 10:50 EGPO 231050Z 25017KT 9999 FEW012 SCT022 10/06 Q1002
 
EGPI - Islay, Inner Hebrides
Distance from station: WSW 172mi, 276km
Updated: 23/04/2018 11:50
Mostly cloudy
Mostly cloudy
 Wind from SSW
Wind: SSW 14 mph , 22 km/h
Temperature: 9°C
Wind Chill: 6°C
Dew Point: 7°C
Humidity: 87%
Barometer: 1008 hPa
Clouds: Mostly cloudy
Visibility: 6 miles , 10 km
Cloud details: Few Clouds 2800 ft
Mostly cloudy 3400 ft
2018/04/23 10:50 EGPI 231050Z 21012KT 9999 FEW028 BKN034 09/07 Q1008
EGPU - Tiree, Inner Hebrides
Distance from station: W 172mi, 276km
Updated: 23/04/2018 11:50
Mostly cloudy
Mostly cloudy
 Wind from SSW
Wind: SSW 16 mph , 26 km/h
Temperature: 10°C
Wind Chill: 7°C
Dew Point: 7°C
Humidity: 82%
Barometer: 1006 hPa
Clouds: Mostly cloudy
Visibility: 6 miles , 10 km
Cloud details: Partly cloudy 3300 ft
Mostly cloudy 4200 ft
2018/04/23 10:50 EGPU 231050Z 21014KT 9999 SCT033 BKN042 10/07 Q1006
 
EGPB - Sumburgh, Shetland
Distance from station: NNE 208mi, 332km
Updated: 23/04/2018 11:50
Partly cloudy
Partly cloudy
 Wind from WSW
Wind: WSW 22 mph , 35 km/h
Temperature: 9°C
Wind Chill: 5°C
Dew Point: 6°C
Humidity: 82%
Barometer: 997 hPa
Clouds: Partly cloudy
Visibility: 6 miles , 10 km
Cloud details: Few Clouds 1100 ft
Partly cloudy 3200 ft
2018/04/23 10:50 EGPB 231050Z 25019KT 9999 FEW011 SCT032 09/06 Q0997
EGPM - Scatsa, Shetland
Distance from station: NNE 245mi, 392km
Updated: 23/04/2018 11:50
Partly cloudy
Partly cloudy
 Wind from WSW
Wind: WSW 22 mph , 35 km/h
Temperature: 8°C
Wind Chill: 3°C
Dew Point: 6°C
Humidity: 87%
Barometer: 995 hPa
Clouds: Partly cloudy
Visibility: 6 miles , 10 km
Cloud details: Few Clouds 1200 ft
Partly cloudy 1600 ft
2018/04/23 10:50 EGPM 231050Z 24019KT 9999 FEW012 SCT016 08/06 Q0995 NOSIG
-->